Time;durP1;ratioP1;P1;durP2;ratioP2;P2;SDS_P1;SDS_P2;PMS_P1;PMS_P2;Temp;Humidity;BMP_temperature;BMP_pressure;BME280_temperature;BME280_humidity;BME280_pressure;Samples;Min_cycle;Max_cycle;Signal;HPM_P1;HPM_P2
2022/08/11 00:00:52;;;;;;;;;;;16.70;99.90;;;;;;4982574;28;19962;-77
2022/08/11 00:03:19;;;;;;;;;;;16.70;99.90;;;;;;4988795;28;19961;-77
2022/08/11 00:05:50;;;;;;;;;;;16.60;99.90;;;;;;4967424;28;19934;-78
2022/08/11 00:08:22;;;;;;;;;;;16.60;99.90;;;;;;4991318;28;20422;-79
2022/08/11 00:10:57;;;;;;;;;;;16.60;99.90;;;;;;4999055;28;19925;-79
2022/08/11 00:13:37;;;;;;;;;;;16.50;99.90;;;;;;4980588;28;19925;-77
2022/08/11 00:16:03;;;;;;;;;;;;;;;;;;4974578;28;19934;-78
2022/08/11 00:18:37;;;;;;;;;;;16.50;99.90;;;;;;4978737;28;19930;-79
2022/08/11 00:21:02;;;;;;;;;;;16.40;99.90;;;;;;4991690;28;19933;-78
2022/08/11 00:23:28;;;;;;;;;;;16.40;99.90;;;;;;4991401;28;19992;-78
2022/08/11 00:25:55;;;;;;;;;;;16.40;99.90;;;;;;4992522;28;20372;-78
2022/08/11 00:28:30;;;;;;;;;;;16.40;99.90;;;;;;4977085;28;19925;-77
2022/08/11 00:30:57;;;;;;;;;;;16.40;99.90;;;;;;4978322;28;20350;-77
2022/08/11 00:33:25;;;;;;;;;;;16.40;99.90;;;;;;4982105;28;20008;-77
2022/08/11 00:35:56;;;;;;;;;;;16.40;99.90;;;;;;4997618;28;19925;-78
2022/08/11 00:38:23;;;;;;;;;;;16.30;99.90;;;;;;5005534;28;19972;-76
2022/08/11 00:41:19;;;;;;;;;;;16.30;99.90;;;;;;4996325;28;19936;-77
2022/08/11 00:44:09;;;;;;;;;;;16.30;99.90;;;;;;4934879;28;20002;-80
2022/08/11 00:46:52;;;;;;;;;;;16.30;99.90;;;;;;4995008;28;20012;-77
2022/08/11 00:49:21;;;;;;;;;;;16.20;99.90;;;;;;4995177;28;20414;-77
2022/08/11 00:52:21;;;;;;;;;;;16.20;99.90;;;;;;5128292;27;19927;-79
2022/08/11 00:54:57;;;;;;;;;;;16.20;99.90;;;;;;5103497;28;19931;-80
2022/08/11 00:57:26;;;;;;;;;;;16.20;99.90;;;;;;5097681;28;19911;-79
2022/08/11 01:00:05;;;;;;;;;;;16.30;99.90;;;;;;5102287;27;20391;-79
2022/08/11 01:03:06;;;;;;;;;;;16.20;99.90;;;;;;5097597;28;19969;-78
2022/08/11 01:05:56;;;;;;;;;;;16.20;99.90;;;;;;5079984;28;20348;-78
2022/08/11 01:08:40;;;;;;;;;;;16.20;99.90;;;;;;5058398;28;20129;-79
2022/08/11 01:11:09;;;;;;;;;;;16.20;99.90;;;;;;5077572;28;20164;-79
2022/08/11 01:14:07;;;;;;;;;;;16.10;99.90;;;;;;5076054;28;19970;-79
2022/08/11 01:16:52;;;;;;;;;;;16.10;99.90;;;;;;5041231;28;20031;-79
2022/08/11 01:19:36;;;;;;;;;;;16.10;99.90;;;;;;5078842;28;20303;-79
2022/08/11 01:22:11;;;;;;;;;;;16.10;99.90;;;;;;5061252;28;19928;-78
2022/08/11 01:24:59;;;;;;;;;;;16.10;99.90;;;;;;5080988;28;19928;-79
2022/08/11 01:27:34;;;;;;;;;;;16.00;99.90;;;;;;5064877;28;20317;-80
2022/08/11 01:30:38;;;;;;;;;;;15.90;99.90;;;;;;5045542;28;19944;-79
2022/08/11 01:33:13;;;;;;;;;;;15.90;99.90;;;;;;5058280;28;19928;-79
2022/08/11 01:36:14;;;;;;;;;;;15.90;99.90;;;;;;5068408;28;20035;-80
2022/08/11 01:38:58;;;;;;;;;;;15.90;99.90;;;;;;5056597;28;20414;-79
2022/08/11 01:44:36;;;;;;;;;;;15.90;99.90;;;;;;5047531;28;19939;-79
2022/08/11 01:44:38;;;;;;;;;;;15.90;99.90;;;;;;5050730;28;20414;-79
2022/08/11 01:50:09;;;;;;;;;;;15.80;99.90;;;;;;5048726;28;20477;-80
2022/08/11 01:52:41;;;;;;;;;;;15.80;99.90;;;;;;5054814;28;19932;-80
2022/08/11 01:55:17;;;;;;;;;;;15.80;99.90;;;;;;5045197;28;19939;-80
2022/08/11 01:57:45;;;;;;;;;;;15.80;99.90;;;;;;5057220;28;19924;-80
2022/08/11 02:00:30;;;;;;;;;;;15.80;99.90;;;;;;5045819;28;20868;-81
2022/08/11 02:03:16;;;;;;;;;;;15.70;99.90;;;;;;5042158;28;19924;-83
2022/08/11 02:09:16;;;;;;;;;;;15.80;99.90;;;;;;5218555;22;19924;-79
2022/08/11 02:11:45;;;;;;;;;;;15.80;99.90;;;;;;5030200;28;19971;-79
2022/08/11 02:14:21;;;;;;;;;;;15.80;99.90;;;;;;5046039;28;20480;-79
2022/08/11 02:17:02;;;;;;;;;;;15.70;99.90;;;;;;5031199;28;19924;-79
2022/08/11 02:25:34;;;;;;;;;;;15.70;99.90;;;;;;5044636;28;19928;-79
2022/08/11 02:28:11;;;;;;;;;;;15.70;99.90;;;;;;5031766;28;19951;-81
2022/08/11 02:30:40;;;;;;;;;;;15.70;99.90;;;;;;5044605;28;19980;-82
2022/08/11 02:33:26;;;;;;;;;;;15.70;99.90;;;;;;5045175;28;20003;-81
2022/08/11 02:36:07;;;;;;;;;;;15.60;99.90;;;;;;5031088;28;19928;-79
2022/08/11 02:38:42;;;;;;;;;;;15.60;99.90;;;;;;5045467;28;20367;-81
2022/08/11 02:44:23;;;;;;;;;;;15.60;99.90;;;;;;5042808;28;19925;-81
2022/08/11 02:46:52;;;;;;;;;;;15.60;99.90;;;;;;5043654;28;19932;-83
2022/08/11 02:52:36;;;;;;;;;;;15.60;99.90;;;;;;4972011;28;19976;-80
2022/08/11 02:55:08;;;;;;;;;;;15.60;99.90;;;;;;4965527;28;19948;-83
2022/08/11 02:57:38;;;;;;;;;;;15.60;99.90;;;;;;4956599;28;20411;-82
2022/08/11 03:00:11;;;;;;;;;;;15.60;99.90;;;;;;4952988;28;19929;-83
2022/08/11 03:02:44;;;;;;;;;;;15.60;99.90;;;;;;4951873;28;19926;-83
2022/08/11 03:05:15;;;;;;;;;;;15.60;99.90;;;;;;4970898;28;19926;-83
2022/08/11 03:08:00;;;;;;;;;;;15.60;99.90;;;;;;5026125;28;19948;-84
2022/08/11 03:10:33;;;;;;;;;;;15.60;99.90;;;;;;5030575;28;19925;-80
2022/08/11 03:19:31;;;;;;;;;;;15.60;99.90;;;;;;5046093;28;19932;-83
2022/08/11 03:22:15;;;;;;;;;;;15.60;99.90;;;;;;5005175;28;19946;-82
2022/08/11 03:24:59;;;;;;;;;;;15.60;99.90;;;;;;5037737;28;19933;-84
2022/08/11 03:27:35;;;;;;;;;;;15.70;99.90;;;;;;5041320;28;19929;-82
2022/08/11 03:30:11;;;;;;;;;;;15.60;99.90;;;;;;5029565;28;19925;-84
2022/08/11 03:32:45;;;;;;;;;;;15.60;99.90;;;;;;5030774;28;20272;-84
2022/08/11 03:35:35;;;;;;;;;;;15.60;99.90;;;;;;5049440;28;19924;-84
2022/08/11 03:38:06;;;;;;;;;;;15.60;99.90;;;;;;5028763;28;20036;-84
2022/08/11 03:43:25;;;;;;;;;;;15.60;99.90;;;;;;5049834;28;19986;-84
2022/08/11 03:45:59;;;;;;;;;;;15.60;99.90;;;;;;5048693;28;19924;-82
2022/08/11 03:48:39;;;;;;;;;;;15.50;99.90;;;;;;5029130;28;19976;-83
2022/08/11 03:51:28;;;;;;;;;;;15.50;99.90;;;;;;5045951;28;19983;-83
2022/08/11 03:53:54;;;;;;;;;;;15.50;99.90;;;;;;5025292;28;20541;-83
2022/08/11 03:56:19;;;;;;;;;;;15.50;99.90;;;;;;5031912;28;19972;-83
2022/08/11 03:59:04;;;;;;;;;;;16.00;99.90;;;;;;5031745;28;20403;-82
2022/08/11 04:01:31;;;;;;;;;;;15.40;99.90;;;;;;5025220;28;20443;-86
2022/08/11 04:04:35;;;;;;;;;;;15.40;99.90;;;;;;5031641;28;19925;-87
2022/08/11 04:07:30;;;;;;;;;;;15.40;99.90;;;;;;5012992;28;19925;-87
2022/08/11 04:10:14;;;;;;;;;;;15.30;99.90;;;;;;4963006;28;20338;-86
2022/08/11 04:12:50;;;;;;;;;;;15.30;99.90;;;;;;4953168;28;19926;-81
2022/08/11 04:18:24;;;;;;;;;;;15.20;99.90;;;;;;4944969;29;19926;-83
2022/08/11 04:21:05;;;;;;;;;;;15.20;99.90;;;;;;5002634;28;19970;-87
2022/08/11 04:23:39;;;;;;;;;;;15.20;99.90;;;;;;5027545;28;19925;-88
2022/08/11 04:26:28;;;;;;;;;;;15.20;99.90;;;;;;5029030;28;20373;-87
2022/08/11 04:29:15;;;;;;;;;;;15.20;99.90;;;;;;5049008;28;19928;-85
2022/08/11 04:34:54;;;;;;;;;;;15.10;99.90;;;;;;5042900;28;20014;-90
2022/08/11 04:37:34;;;;;;;;;;;15.20;99.90;;;;;;5030228;28;19932;-84
2022/08/11 04:40:29;;;;;;;;;;;15.20;99.90;;;;;;5034038;28;20004;-82
2022/08/11 04:46:11;;;;;;;;;;;15.20;99.90;;;;;;5051180;28;19983;-84
2022/08/11 05:01:40;;;;;;;;;;;15.20;99.90;;;;;;4991492;28;19925;-89
2022/08/11 05:07:24;;;;;;;;;;;15.30;99.90;;;;;;5060551;28;19924;-87
2022/08/11 05:10:09;;;;;;;;;;;15.40;99.90;;;;;;5034293;28;19925;-82
2022/08/11 05:12:34;;;;;;;;;;;15.50;99.90;;;;;;5038644;28;19928;-90
2022/08/11 05:35:15;;;;;;;;;;;16.50;99.90;;;;;;4999845;28;19925;-81
2022/08/11 05:57:18;;;;;;;;;;;17.40;99.90;;;;;;5047372;28;19929;-81
2022/08/11 05:59:45;;;;;;;;;;;17.50;99.90;;;;;;5026081;28;19925;-81
2022/08/11 06:02:11;;;;;;;;;;;17.60;99.90;;;;;;5017530;28;20157;-80
2022/08/11 06:04:38;;;;;;;;;;;17.60;99.90;;;;;;5033060;28;19964;-84
2022/08/11 06:07:08;;;;;;;;;;;17.70;99.90;;;;;;5050526;28;19936;-81
2022/08/11 06:09:34;;;;;;;;;;;17.80;99.90;;;;;;5048731;28;20440;-82
2022/08/11 06:12:02;;;;;;;;;;;17.90;99.90;;;;;;5048309;28;19968;-80
2022/08/11 06:14:29;;;;;;;;;;;17.90;99.90;;;;;;5046403;28;20488;-81
2022/08/11 06:16:57;;;;;;;;;;;18.10;99.90;;;;;;5031992;28;19928;-81
2022/08/11 06:19:31;;;;;;;;;;;18.30;99.90;;;;;;5047878;28;19921;-80
2022/08/11 06:21:58;;;;;;;;;;;18.40;99.90;;;;;;5048896;28;19963;-81
2022/08/11 06:24:28;;;;;;;;;;;18.60;99.90;;;;;;5027166;28;19932;-81
2022/08/11 06:27:00;;;;;;;;;;;18.60;99.90;;;;;;5037515;28;20004;-80
2022/08/11 06:29:27;;;;;;;;;;;18.80;99.90;;;;;;5048892;28;19925;-81
2022/08/11 06:31:57;;;;;;;;;;;18.90;99.90;;;;;;5031383;28;20016;-80
2022/08/11 06:34:33;;;;;;;;;;;18.90;99.90;;;;;;5029723;28;19986;-80
2022/08/11 06:37:17;;;;;;;;;;;19.10;99.90;;;;;;5052117;28;19929;-80
2022/08/11 06:39:50;;;;;;;;;;;19.20;99.90;;;;;;5051955;28;19928;-79
2022/08/11 06:42:35;;;;;;;;;;;19.30;99.90;;;;;;5038499;28;20018;-79
2022/08/11 06:45:21;;;;;;;;;;;19.40;99.90;;;;;;5049251;28;19921;-83
2022/08/11 06:47:47;;;;;;;;;;;19.50;99.90;;;;;;5043691;28;20359;-80
2022/08/11 06:53:17;;;;;;;;;;;19.90;99.90;;;;;;5046478;28;19929;-80
2022/08/11 07:01:33;;;;;;;;;;;20.80;99.90;;;;;;5045086;28;19936;-80
2022/08/11 07:04:05;;;;;;;;;;;20.90;99.90;;;;;;5047350;28;20027;-79
2022/08/11 07:15:43;;;;;;;;;;;21.70;99.90;;;;;;5035515;28;19929;-86
2022/08/11 07:29:44;;;;;;;;;;;24.00;99.90;;;;;;5046019;28;19981;-80
2022/08/11 07:32:15;;;;;;;;;;;25.10;99.90;;;;;;5030695;28;19975;-83
2022/08/11 07:34:47;;;;;;;;;;;26.20;99.90;;;;;;5053802;28;19951;-81
2022/08/11 07:37:18;;;;;;;;;;;27.20;99.90;;;;;;5048197;28;19931;-80
2022/08/11 07:39:45;;;;;;;;;;;27.90;99.90;;;;;;5005531;28;19956;-80
2022/08/11 07:42:13;;;;;;;;;;;28.50;99.90;;;;;;5041058;28;19929;-80
2022/08/11 07:52:58;;;;;;;;;;;30.90;96.20;;;;;;5045667;28;19958;-85
2022/08/11 07:55:25;;;;;;;;;;;31.00;91.80;;;;;;5030246;28;20317;-81
2022/08/11 08:19:58;;;;;;;;;;;32.10;82.10;;;;;;5034924;28;20424;-84
2022/08/11 08:22:25;;;;;;;;;;;32.20;80.50;;;;;;5014277;28;19924;-80
2022/08/11 08:24:51;;;;;;;;;;;32.40;78.80;;;;;;5037311;28;19929;-85
2022/08/11 08:27:19;;;;;;;;;;;32.50;76.60;;;;;;5046658;28;19935;-80
2022/08/11 08:32:37;;;;;;;;;;;32.70;77.30;;;;;;5053165;28;19976;-83
2022/08/11 08:35:03;;;;;;;;;;;32.90;74.80;;;;;;5037764;28;20383;-81
2022/08/11 08:37:29;;;;;;;;;;;32.80;73.50;;;;;;5014715;28;20482;-82
2022/08/11 08:39:57;;;;;;;;;;;33.10;70.40;;;;;;5024723;28;20363;-80
2022/08/11 08:42:24;;;;;;;;;;;33.00;71.30;;;;;;5032517;28;19931;-83
2022/08/11 08:44:53;;;;;;;;;;;32.80;69.40;;;;;;5028740;28;19935;-82
2022/08/11 08:47:20;;;;;;;;;;;32.70;69.80;;;;;;5039388;28;19929;-80
2022/08/11 08:49:49;;;;;;;;;;;32.80;70.00;;;;;;5010025;28;19968;-89
2022/08/11 08:52:22;;;;;;;;;;;32.70;71.90;;;;;;5045466;28;19971;-80
2022/08/11 08:54:50;;;;;;;;;;;32.80;70.50;;;;;;5028057;28;20044;-85
2022/08/11 08:57:18;;;;;;;;;;;32.70;69.30;;;;;;5039615;28;19946;-93
2022/08/11 08:59:46;;;;;;;;;;;32.50;70.40;;;;;;5045428;28;20338;-81
2022/08/11 09:02:12;;;;;;;;;;;32.50;68.10;;;;;;5045529;28;19928;-88
2022/08/11 09:04:39;;;;;;;;;;;32.30;66.60;;;;;;5029137;28;19924;-86
2022/08/11 09:07:10;;;;;;;;;;;32.20;69.50;;;;;;5030516;28;20512;-81
2022/08/11 09:09:36;;;;;;;;;;;32.00;70.70;;;;;;5028926;28;20035;-88
2022/08/11 09:12:04;;;;;;;;;;;31.70;71.20;;;;;;5048172;28;19924;-79
2022/08/11 09:17:22;;;;;;;;;;;31.20;71.00;;;;;;5049989;28;19936;-80
2022/08/11 09:19:50;;;;;;;;;;;31.00;74.00;;;;;;5044090;28;19992;-84
2022/08/11 09:27:55;;;;;;;;;;;30.50;75.70;;;;;;5050153;28;20344;-81
2022/08/11 09:30:26;;;;;;;;;;;30.40;75.70;;;;;;5022474;28;20386;-82
2022/08/11 09:32:56;;;;;;;;;;;30.50;75.80;;;;;;5038323;28;19936;-80
2022/08/11 09:35:29;;;;;;;;;;;30.50;73.60;;;;;;5075201;28;20366;-80
2022/08/11 09:40:59;;;;;;;;;;;30.40;68.70;;;;;;5043215;28;20001;-81
2022/08/11 09:46:13;;;;;;;;;;;30.60;71.40;;;;;;5045696;28;19925;-84
2022/08/11 09:48:41;;;;;;;;;;;30.70;70.60;;;;;;5045692;28;19947;-82
2022/08/11 09:51:08;;;;;;;;;;;30.80;65.90;;;;;;5046769;28;19929;-79
2022/08/11 09:53:38;;;;;;;;;;;30.90;67.60;;;;;;5024240;28;19921;-83
2022/08/11 09:58:50;;;;;;;;;;;31.30;68.60;;;;;;5052364;28;20445;-82
2022/08/11 10:01:28;;;;;;;;;;;31.40;67.10;;;;;;5029667;28;19936;-81
2022/08/11 10:03:56;;;;;;;;;;;31.50;68.80;;;;;;5050808;28;19931;-89
2022/08/11 10:07:00;;;;;;;;;;;31.50;66.70;;;;;;5039061;28;19925;-83
2022/08/11 10:09:28;;;;;;;;;;;31.60;64.20;;;;;;5048799;28;19929;-79
2022/08/11 10:11:56;;;;;;;;;;;31.70;64.20;;;;;;5049873;28;19943;-82
2022/08/11 10:17:14;;;;;;;;;;;31.90;65.40;;;;;;5037434;28;19925;-80
2022/08/11 10:19:41;;;;;;;;;;;32.10;62.20;;;;;;5031544;28;19935;-80
2022/08/11 10:27:41;;;;;;;;;;;32.30;61.50;;;;;;5034992;28;19928;-82
2022/08/11 10:35:37;;;;;;;;;;;32.30;58.10;;;;;;5034138;28;20402;-81
2022/08/11 10:38:04;;;;;;;;;;;32.20;60.20;;;;;;5014922;28;19951;-82
2022/08/11 10:40:31;;;;;;;;;;;32.30;63.00;;;;;;5046540;28;19936;-84
2022/08/11 10:43:01;;;;;;;;;;;32.30;59.50;;;;;;5029875;28;19928;-84
2022/08/11 10:48:19;;;;;;;;;;;32.50;61.70;;;;;;5046231;28;19936;-80
2022/08/11 10:59:07;;;;;;;;;;;33.00;59.60;;;;;;5045843;28;20493;-78
2022/08/11 11:01:35;;;;;;;;;;;32.80;57.40;;;;;;5028067;28;19925;-78
2022/08/11 11:04:04;;;;;;;;;;;32.60;57.30;;;;;;5050005;28;19925;-81
2022/08/11 11:06:45;;;;;;;;;;;32.50;58.70;;;;;;5047133;28;19925;-81
2022/08/11 11:09:19;;;;;;;;;;;32.50;58.40;;;;;;5032610;28;19932;-78
2022/08/11 11:18:03;;;;;;;;;;;32.90;59.30;;;;;;5046786;28;19967;-82
2022/08/11 11:20:32;;;;;;;;;;;33.00;58.90;;;;;;5026083;28;20781;-80
2022/08/11 11:23:02;;;;;;;;;;;33.00;57.90;;;;;;5044002;28;19925;-82
2022/08/11 11:25:34;;;;;;;;;;;33.00;57.60;;;;;;5029150;28;20452;-77
2022/08/11 11:28:09;;;;;;;;;;;33.00;57.10;;;;;;5039083;28;19935;-82
2022/08/11 11:30:40;;;;;;;;;;;33.00;59.80;;;;;;5041785;28;20364;-85
2022/08/11 11:33:22;;;;;;;;;;;33.00;58.30;;;;;;5041811;28;20415;-80
2022/08/11 11:36:06;;;;;;;;;;;33.00;58.40;;;;;;5040322;28;19951;-80
2022/08/11 11:38:32;;;;;;;;;;;32.90;59.80;;;;;;5045203;28;19965;-78
2022/08/11 11:43:45;;;;;;;;;;;32.50;54.70;;;;;;5031462;28;20517;-81
2022/08/11 11:46:12;;;;;;;;;;;32.50;56.80;;;;;;5046437;28;20019;-84
2022/08/11 11:48:39;;;;;;;;;;;32.50;58.10;;;;;;5014841;28;19924;-85
2022/08/11 11:51:05;;;;;;;;;;;32.50;57.20;;;;;;5045856;28;20384;-86
2022/08/11 11:53:31;;;;;;;;;;;32.50;59.70;;;;;;5046355;28;19924;-78
2022/08/11 11:55:58;;;;;;;;;;;32.40;57.70;;;;;;5046481;28;19935;-78
2022/08/11 12:01:14;;;;;;;;;;;32.50;59.10;;;;;;5043802;28;19931;-82
2022/08/11 12:03:42;;;;;;;;;;;32.50;58.70;;;;;;5039088;28;20513;-81
2022/08/11 12:06:12;;;;;;;;;;;32.50;57.80;;;;;;5047134;28;19929;-81
2022/08/11 12:08:40;;;;;;;;;;;32.40;59.70;;;;;;5029907;28;20011;-87
2022/08/11 12:13:54;;;;;;;;;;;32.10;58.90;;;;;;5045920;28;20640;-79
2022/08/11 12:16:21;;;;;;;;;;;32.10;58.70;;;;;;5044822;28;20435;-78
2022/08/11 12:18:49;;;;;;;;;;;32.10;58.30;;;;;;5045994;28;19925;-82
2022/08/11 12:21:15;;;;;;;;;;;32.00;59.80;;;;;;5045235;28;20482;-80
2022/08/11 12:29:13;;;;;;;;;;;31.60;59.30;;;;;;5045943;28;19935;-81
2022/08/11 12:31:39;;;;;;;;;;;31.40;57.60;;;;;;5044386;28;19925;-79
2022/08/11 12:34:09;;;;;;;;;;;31.30;58.80;;;;;;5057790;28;20327;-79
2022/08/11 12:36:41;;;;;;;;;;;31.20;58.10;;;;;;5035588;28;19932;-78
2022/08/11 12:39:17;;;;;;;;;;;31.10;59.10;;;;;;5047249;28;19928;-83
2022/08/11 12:51:55;;;;;;;;;;;30.80;60.00;;;;;;5025948;28;19952;-79
2022/08/11 12:53:01;;;;;;;;;;;30.50;59.60;;;;;;5044575;28;20644;-81
2022/08/11 12:58:17;;;;;;;;;;;30.30;62.00;;;;;;5044549;28;20656;-82
2022/08/11 13:06:12;;;;;;;;;;;30.10;59.90;;;;;;5059956;28;19929;-76
2022/08/11 13:08:39;;;;;;;;;;;30.00;58.10;;;;;;5028560;28;20326;-79
2022/08/11 13:13:53;;;;;;;;;;;29.80;58.90;;;;;;5044510;28;20036;-80
2022/08/11 13:16:21;;;;;;;;;;;29.80;58.60;;;;;;5043929;28;19932;-79
2022/08/11 13:18:49;;;;;;;;;;;29.70;59.30;;;;;;5038251;28;20368;-78
2022/08/11 13:21:15;;;;;;;;;;;29.60;60.00;;;;;;5044898;28;20540;-80
2022/08/11 13:23:41;;;;;;;;;;;29.60;58.40;;;;;;5044738;28;19971;-82
2022/08/11 13:26:07;;;;;;;;;;;29.50;59.80;;;;;;5044985;28;20384;-82
2022/08/11 13:28:35;;;;;;;;;;;29.50;59.90;;;;;;5025978;28;19971;-80
2022/08/11 13:31:10;;;;;;;;;;;29.40;60.80;;;;;;5041347;28;19972;-79
2022/08/11 13:33:44;;;;;;;;;;;29.30;61.00;;;;;;5012328;28;19951;-79
2022/08/11 13:36:10;;;;;;;;;;;29.30;60.20;;;;;;5045760;28;20425;-80
2022/08/11 13:38:37;;;;;;;;;;;29.20;60.80;;;;;;5040507;28;19929;-80
2022/08/11 13:41:36;;;;;;;;;;;29.10;60.90;;;;;;5021742;28;19928;-82
2022/08/11 13:43:49;;;;;;;;;;;29.10;61.40;;;;;;5040518;28;20312;-80
2022/08/11 13:46:19;;;;;;;;;;;29.00;61.10;;;;;;5026757;28;19936;-77
2022/08/11 13:48:45;;;;;;;;;;;29.00;61.70;;;;;;5044875;28;19928;-79
2022/08/11 13:51:30;;;;;;;;;;;28.90;62.50;;;;;;5044329;28;19932;-77
2022/08/11 13:54:01;;;;;;;;;;;28.90;63.30;;;;;;5014484;28;19997;-79
2022/08/11 13:56:27;;;;;;;;;;;28.80;62.50;;;;;;5027310;28;19929;-78
2022/08/11 13:58:53;;;;;;;;;;;28.80;63.30;;;;;;5045314;28;20015;-80
2022/08/11 14:01:19;;;;;;;;;;;28.80;64.30;;;;;;5042733;28;19925;-81
2022/08/11 14:03:45;;;;;;;;;;;28.70;63.50;;;;;;5030091;28;19929;-80
2022/08/11 14:06:12;;;;;;;;;;;28.60;64.30;;;;;;5026116;28;19921;-82
2022/08/11 14:08:37;;;;;;;;;;;28.60;64.50;;;;;;5039799;28;20008;-79
2022/08/11 14:13:50;;;;;;;;;;;28.50;65.10;;;;;;5048174;28;19932;-81
2022/08/11 14:16:20;;;;;;;;;;;28.40;64.10;;;;;;5047219;28;19932;-82
2022/08/11 14:18:47;;;;;;;;;;;28.40;63.00;;;;;;5043943;28;19928;-81
2022/08/11 14:24:04;;;;;;;;;;;28.30;64.60;;;;;;5033102;28;20404;-80
2022/08/11 14:26:37;;;;;;;;;;;28.20;64.30;;;;;;5047509;28;19928;-81
2022/08/11 14:29:08;;;;;;;;;;;28.20;66.00;;;;;;5045838;28;19929;-83
2022/08/11 14:31:36;;;;;;;;;;;28.10;67.10;;;;;;5030032;28;20486;-82
2022/08/11 14:34:09;;;;;;;;;;;28.10;67.00;;;;;;5058806;28;19984;-85
2022/08/11 14:36:36;;;;;;;;;;;28.00;67.40;;;;;;5049325;28;19929;-85
2022/08/11 14:39:22;;;;;;;;;;;27.90;67.30;;;;;;5041261;28;19968;-81
2022/08/11 14:47:21;;;;;;;;;;;27.70;67.40;;;;;;5040356;28;19928;-83
2022/08/11 14:49:47;;;;;;;;;;;27.70;67.80;;;;;;5046167;28;19933;-88
2022/08/11 14:52:14;;;;;;;;;;;27.60;67.60;;;;;;5048737;28;19928;-80
2022/08/11 14:57:31;;;;;;;;;;;27.50;68.10;;;;;;5047116;28;20019;-83
2022/08/11 14:59:59;;;;;;;;;;;27.50;68.40;;;;;;5046429;28;19928;-80
2022/08/11 15:05:09;;;;;;;;;;;27.40;69.20;;;;;;5037534;28;20346;-81
2022/08/11 15:07:35;;;;;;;;;;;27.40;68.80;;;;;;5049037;28;20030;-83
2022/08/11 15:10:03;;;;;;;;;;;27.40;68.50;;;;;;5046404;28;20071;-81
2022/08/11 15:12:29;;;;;;;;;;;27.40;68.60;;;;;;5048387;28;19929;-91
2022/08/11 15:17:41;;;;;;;;;;;27.30;68.70;;;;;;5046232;28;19952;-81
2022/08/11 15:25:38;;;;;;;;;;;27.30;69.60;;;;;;5045651;28;20455;-82
2022/08/11 15:39:26;;;;;;;;;;;27.30;70.20;;;;;;5043323;28;19940;-82
2022/08/11 15:47:27;;;;;;;;;;;27.30;71.30;;;;;;5032355;28;19975;-82
2022/08/11 15:49:54;;;;;;;;;;;27.20;71.20;;;;;;5030729;28;19925;-81
2022/08/11 15:52:22;;;;;;;;;;;27.20;70.70;;;;;;5029522;28;19932;-84
2022/08/11 15:54:48;;;;;;;;;;;27.10;70.80;;;;;;5028612;28;19972;-83
2022/08/11 16:05:23;;;;;;;;;;;27.00;71.60;;;;;;5045942;28;20399;-85
2022/08/11 16:07:50;;;;;;;;;;;27.00;72.80;;;;;;5029171;28;20742;-84
2022/08/11 16:10:20;;;;;;;;;;;27.00;72.50;;;;;;5045487;28;19939;-82
2022/08/11 16:18:40;;;;;;;;;;;26.90;73.30;;;;;;5046096;28;20023;-84
2022/08/11 16:21:10;;;;;;;;;;;26.80;73.10;;;;;;5045895;28;20384;-81
2022/08/11 16:23:37;;;;;;;;;;;26.80;73.40;;;;;;5045739;28;20071;-82
2022/08/11 16:26:04;;;;;;;;;;;26.80;73.20;;;;;;5045534;28;19994;-85
2022/08/11 16:28:32;;;;;;;;;;;26.80;73.40;;;;;;5025184;28;19932;-81
2022/08/11 16:30:59;;;;;;;;;;;26.70;73.70;;;;;;5043289;28;19928;-86
2022/08/11 16:33:25;;;;;;;;;;;26.70;74.10;;;;;;5041448;28;19929;-82
2022/08/11 16:38:38;;;;;;;;;;;26.60;74.80;;;;;;5029393;28;20426;-82
2022/08/11 16:41:10;;;;;;;;;;;26.60;75.40;;;;;;5041891;28;20286;-85
2022/08/11 16:49:18;;;;;;;;;;;26.60;77.10;;;;;;5045653;28;20011;-83
2022/08/11 16:51:44;;;;;;;;;;;26.50;77.40;;;;;;5043232;28;19936;-81
2022/08/11 16:54:10;;;;;;;;;;;26.50;76.60;;;;;;5043941;28;19952;-82
2022/08/11 16:56:40;;;;;;;;;;;26.50;77.40;;;;;;5010703;28;20354;-84
2022/08/11 16:59:14;;;;;;;;;;;26.40;77.60;;;;;;5041451;28;19941;-83
2022/08/11 17:01:41;;;;;;;;;;;26.40;78.10;;;;;;5042711;28;19929;-84
2022/08/11 17:18:39;;;;;;;;;;;26.20;79.50;;;;;;5013404;28;19924;-83
2022/08/11 17:21:04;;;;;;;;;;;26.20;80.50;;;;;;5045375;28;19940;-83
2022/08/11 17:29:23;;;;;;;;;;;26.10;80.80;;;;;;5043081;28;19925;-83
2022/08/11 17:37:20;;;;;;;;;;;25.90;82.50;;;;;;5039288;28;20382;-81
2022/08/11 17:39:46;;;;;;;;;;;25.80;82.40;;;;;;5050723;28;19928;-84
2022/08/11 17:50:33;;;;;;;;;;;25.60;83.40;;;;;;5049800;28;19968;-86
2022/08/11 18:01:15;;;;;;;;;;;25.50;86.60;;;;;;5040652;28;19929;-82
2022/08/11 18:03:41;;;;;;;;;;;25.50;87.60;;;;;;5047892;28;20023;-86
2022/08/11 18:06:08;;;;;;;;;;;25.50;87.30;;;;;;5049072;28;19925;-81
